Time;durP1;ratioP1;P1;durP2;ratioP2;P2;SDS_P1;SDS_P2;PMS_P1;PMS_P2;Temp;Humidity;BMP_temperature;BMP_pressure;BME280_temperature;BME280_humidity;BME280_pressure;Samples;Min_cycle;Max_cycle;Signal;HPM_P1;HPM_P2
2022/12/01 00:00:58;;;;;;;5.95;4.40;;;23.20;43.00;;;21.74;48.96;96303.28;4982464;28;20033;-47
2022/12/01 00:03:24;;;;;;;5.68;4.05;;;23.20;43.00;;;21.72;48.57;96292.00;4981609;28;20033;-48
2022/12/01 00:06:04;;;;;;;6.43;4.60;;;23.20;43.00;;;21.72;48.33;96289.31;4981662;28;20107;-47
2022/12/01 00:08:30;;;;;;;7.13;3.90;;;23.10;43.00;;;21.70;49.10;96283.41;4982091;28;20068;-46
2022/12/01 00:11:05;;;;;;;6.05;4.18;;;23.20;43.10;;;21.69;48.68;96289.84;4981803;28;20033;-47
2022/12/01 00:13:31;;;;;;;6.00;4.13;;;23.20;43.00;;;21.70;48.47;96283.41;4965728;28;20644;-48
2022/12/01 00:15:57;;;;;;;5.25;3.95;;;23.20;43.00;;;21.69;49.07;96287.16;4981943;28;20045;-49
2022/12/01 00:18:23;;;;;;;6.47;4.35;;;23.20;43.00;;;21.68;48.67;96285.56;4982209;28;20299;-46
2022/12/01 00:20:54;;;;;;;5.65;4.18;;;23.20;43.00;;;21.67;48.54;96276.72;4977269;28;20199;-48
2022/12/01 00:23:20;;;;;;;5.93;4.38;;;23.20;43.00;;;21.69;48.91;96281.81;4962310;28;20029;-48
2022/12/01 00:25:46;;;;;;;7.00;4.63;;;23.20;43.00;;;21.68;49.18;96278.31;4961462;28;20608;-46
2022/12/01 00:28:12;;;;;;;5.40;4.30;;;23.20;43.00;;;21.67;49.06;96282.06;4962661;28;20029;-47
2022/12/01 00:30:38;;;;;;;6.30;4.32;;;23.10;43.00;;;21.68;48.23;96274.84;4944652;28;20038;-47
2022/12/01 00:33:04;;;;;;;6.60;4.32;;;23.20;43.00;;;21.67;48.89;96278.59;4962702;28;20296;-46
2022/12/01 00:35:30;;;;;;;5.68;4.43;;;23.20;43.10;;;21.67;48.76;96268.69;4962494;28;20434;-46
2022/12/01 00:37:56;;;;;;;6.72;4.47;;;23.20;43.00;;;21.67;48.95;96273.22;4961956;28;20280;-47
2022/12/01 00:40:21;;;;;;;6.15;4.25;;;23.20;43.00;;;21.66;48.85;96275.09;4962255;28;20030;-47
2022/12/01 00:42:47;;;;;;;5.78;4.18;;;23.10;43.10;;;21.66;48.94;96274.28;4960453;28;20311;-46
2022/12/01 00:45:13;;;;;;;5.88;4.43;;;23.20;43.00;;;21.65;49.11;96278.84;4962430;28;20344;-45
2022/12/01 00:47:39;;;;;;;6.22;4.68;;;23.20;43.00;;;21.65;48.86;96276.16;4961617;28;20079;-46
2022/12/01 00:50:05;;;;;;;4.97;4.05;;;23.10;43.10;;;21.65;49.01;96283.38;4963011;28;20574;-48
2022/12/01 00:52:31;;;;;;;5.38;4.20;;;23.10;43.10;;;21.66;48.87;96276.97;4936177;28;20548;-51
2022/12/01 00:54:57;;;;;;;6.28;4.28;;;23.10;43.00;;;21.65;48.91;96278.03;4960876;28;20052;-45
2022/12/01 00:57:23;;;;;;;5.75;4.45;;;23.10;43.10;;;21.64;49.00;96276.41;4962223;28;20208;-47
2022/12/01 00:59:49;;;;;;;5.32;4.20;;;23.10;43.10;;;21.64;48.86;96279.91;4962200;28;20364;-47
2022/12/01 01:02:14;;;;;;;5.13;4.30;;;23.10;43.10;;;21.64;48.26;96279.09;4960825;28;20197;-47
2022/12/01 01:04:41;;;;;;;5.57;4.07;;;23.20;43.10;;;21.64;48.72;96281.78;4961974;28;20503;-48
2022/12/01 01:07:06;;;;;;;5.30;4.28;;;23.10;43.10;;;21.63;48.52;96286.31;4962481;28;20038;-47
2022/12/01 01:09:32;;;;;;;5.45;4.68;;;23.10;43.10;;;21.64;49.14;96287.94;4961626;28;20344;-51
2022/12/01 01:11:58;;;;;;;5.00;3.83;;;23.10;43.20;;;21.64;48.84;96287.13;4961465;28;20443;-46
2022/12/01 01:14:24;;;;;;;6.47;4.75;;;23.10;43.20;;;21.63;49.10;96290.88;4961569;28;20469;-47
2022/12/01 01:16:50;;;;;;;5.88;4.70;;;23.10;43.30;;;21.63;48.96;96288.19;4945140;28;20203;-48
2022/12/01 01:19:16;;;;;;;5.32;4.57;;;23.10;43.20;;;21.63;49.39;96288.19;4943676;28;20356;-47
2022/12/01 01:21:42;;;;;;;6.97;4.57;;;23.10;43.20;;;21.63;49.15;96290.88;4965316;28;20031;-46
2022/12/01 01:24:08;;;;;;;6.43;4.32;;;23.10;43.20;;;21.64;48.66;96289.81;4967275;28;20522;-47
2022/12/01 01:26:35;;;;;;;6.00;4.97;;;23.10;43.20;;;21.63;48.66;96285.50;4965661;28;20435;-47
2022/12/01 01:29:03;;;;;;;5.47;4.28;;;23.10;43.20;;;21.62;49.13;96289.25;4965257;28;20591;-47
2022/12/01 01:31:29;;;;;;;5.70;4.22;;;23.10;43.20;;;21.62;48.92;96295.41;4963747;28;20033;-47
2022/12/01 01:33:56;;;;;;;5.63;4.45;;;23.10;43.30;;;21.62;48.99;96290.06;4965402;28;20048;-45
2022/12/01 01:36:22;;;;;;;5.35;4.28;;;23.10;43.20;;;21.62;49.29;96283.91;4966923;28;20030;-48
2022/12/01 01:38:50;;;;;;;6.18;4.60;;;23.10;43.20;;;21.62;49.70;96283.91;4965250;28;20064;-47
2022/12/01 01:41:17;;;;;;;5.60;4.40;;;23.10;43.30;;;21.62;49.39;96278.53;4965501;28;20037;-47
2022/12/01 01:44:03;;;;;;;6.15;4.45;;;23.10;43.30;;;21.62;48.95;96282.03;4972717;28;20044;-46
2022/12/01 01:46:33;;;;;;;5.25;4.32;;;23.10;43.30;;;21.61;48.86;96291.13;4967956;28;20060;-47
2022/12/01 01:49:05;;;;;;;4.90;3.93;;;23.10;43.40;;;21.60;48.92;96280.66;4959855;28;20034;-48
2022/12/01 01:51:51;;;;;;;5.93;4.40;;;23.10;43.30;;;21.60;49.10;96275.31;4975110;28;20051;-48
2022/12/01 01:54:24;;;;;;;5.38;4.22;;;23.10;43.30;;;21.60;48.89;96276.13;4967511;28;20140;-46
2022/12/01 01:56:50;;;;;;;6.68;4.78;;;23.10;43.30;;;21.59;49.65;96279.06;4964802;28;20041;-48
2022/12/01 01:59:24;;;;;;;5.78;4.40;;;23.10;43.30;;;21.60;49.44;96278.00;4916488;28;20034;-46
2022/12/01 02:02:00;;;;;;;5.05;4.18;;;23.00;43.40;;;21.58;49.09;96277.44;4964278;28;20164;-47
2022/12/01 02:04:27;;;;;;;5.38;4.53;;;23.10;43.40;;;21.58;48.92;96282.78;4963447;28;20606;-49
2022/12/01 02:06:54;;;;;;;8.10;4.80;;;23.10;43.40;;;21.58;48.91;96283.59;4958398;28;20076;-47
2022/12/01 02:09:19;;;;;;;6.18;4.20;;;23.10;43.30;;;21.58;48.72;96280.13;4964788;28;20037;-47
2022/12/01 02:12:11;;;;;;;5.45;4.30;;;23.10;43.40;;;21.60;48.95;96283.34;4964548;28;20399;-47
2022/12/01 02:15:13;;;;;;;7.10;4.85;;;23.10;43.30;;;21.58;49.47;96280.91;4950119;28;20583;-47
2022/12/01 02:17:57;;;;;;;6.43;4.75;;;23.10;43.30;;;21.57;49.43;96273.97;4964461;28;20095;-46
2022/12/01 02:21:02;;;;;;;6.57;4.80;;;23.10;43.30;;;21.57;49.18;96249.88;4944856;28;20056;-47
2022/12/01 02:24:24;;;;;;;5.32;4.22;;;23.10;43.40;;;21.57;48.91;96254.41;4957151;28;20099;-47
2022/12/01 02:27:41;;;;;;;5.60;4.40;;;23.10;43.40;;;21.55;49.12;96253.88;4963431;28;20251;-47
2022/12/01 02:30:13;;;;;;;6.82;5.03;;;23.00;43.30;;;21.53;49.02;96247.97;4944623;28;20033;-47
2022/12/01 02:33:24;;;;;;;6.13;4.43;;;23.10;43.40;;;21.54;49.34;96249.56;4955794;28;20087;-49
2022/12/01 02:35:54;;;;;;;7.13;4.93;;;23.10;43.40;;;21.52;49.03;96255.19;4950468;28;20664;-48
2022/12/01 02:38:41;;;;;;;6.15;4.47;;;23.00;43.40;;;21.53;49.05;96259.47;4964544;28;20544;-48
2022/12/01 02:41:18;;;;;;;4.88;4.20;;;23.10;43.40;;;21.53;49.09;96256.78;4945316;28;20568;-46
2022/12/01 02:44:00;;;;;;;5.97;4.40;;;23.00;43.40;;;21.53;49.07;96247.97;4955752;28;20034;-49
2022/12/01 02:46:52;;;;;;;7.82;4.50;;;23.00;43.40;;;21.53;49.37;96253.31;4963689;28;20215;-46
2022/12/01 02:49:25;;;;;;;7.82;4.90;;;23.10;43.30;;;21.53;49.52;96247.97;4947105;28;20045;-46
2022/12/01 02:51:51;;;;;;;5.75;4.32;;;23.10;43.30;;;21.51;49.14;96240.19;4957217;28;20107;-46
2022/12/01 02:54:17;;;;;;;5.75;4.82;;;23.10;43.30;;;21.53;49.74;96245.28;4975335;28;20026;-46
2022/12/01 02:56:44;;;;;;;5.88;4.63;;;23.00;43.40;;;21.52;49.30;96236.44;4961867;28;20156;-46
2022/12/01 02:59:11;;;;;;;6.28;4.43;;;23.00;43.30;;;21.52;49.70;96227.59;4963615;28;20064;-47
2022/12/01 03:01:55;;;;;;;6.72;4.65;;;23.00;43.30;;;21.53;48.81;96235.38;4964806;28;20038;-47
2022/12/01 03:04:45;;;;;;;6.35;4.75;;;23.00;43.30;;;21.55;48.74;96240.47;4960478;28;20668;-46
2022/12/01 03:07:58;;;;;;;5.80;4.63;;;23.10;43.30;;;21.56;49.03;96232.19;4976258;28;20059;-47
2022/12/01 03:10:46;;;;;;;5.53;4.55;;;23.10;43.20;;;21.59;49.14;96236.22;4891966;28;20031;-46
2022/12/01 03:13:31;;;;;;;6.05;4.60;;;23.10;43.10;;;21.61;48.63;96240.25;4962414;28;20064;-48
2022/12/01 03:16:15;;;;;;;5.65;4.53;;;23.10;43.10;;;21.65;49.07;96245.91;4963130;28;20126;-48
2022/12/01 03:18:56;;;;;;;7.13;5.10;;;23.20;43.10;;;21.68;49.23;96245.38;4947175;28;20037;-46
2022/12/01 03:21:49;;;;;;;6.45;4.43;;;23.20;43.00;;;21.71;49.06;96244.88;4967066;28;20040;-47
2022/12/01 03:24:17;;;;;;;6.70;4.32;;;23.20;43.00;;;21.74;49.05;96238.22;4967254;28;20536;-47
2022/12/01 03:26:47;;;;;;;5.70;4.30;;;23.20;43.00;;;21.76;48.56;96234.22;4986362;28;20040;-47
2022/12/01 03:29:20;;;;;;;6.78;4.72;;;23.30;43.10;;;21.79;48.63;96241.75;4949729;28;20037;-47
2022/12/01 03:31:57;;;;;;;6.68;4.60;;;23.30;43.00;;;21.81;48.76;96239.63;4964443;28;20547;-46
2022/12/01 03:34:37;;;;;;;6.03;4.47;;;23.30;43.00;;;21.84;48.29;96244.47;4966531;28;20147;-47
2022/12/01 03:37:08;;;;;;;6.85;4.85;;;23.40;43.00;;;21.85;48.52;96240.72;4982733;28;20168;-47
2022/12/01 03:39:34;;;;;;;6.50;4.47;;;23.30;43.00;;;21.86;49.24;96234.28;4949295;28;20033;-46
2022/12/01 03:42:20;;;;;;;7.53;4.97;;;23.30;43.00;;;21.89;48.32;96244.47;4964100;28;20547;-46
2022/12/01 03:44:49;;;;;;;6.55;4.70;;;23.30;42.90;;;21.90;48.47;96243.41;4935787;28;20045;-47
2022/12/01 03:47:36;;;;;;;5.85;4.50;;;23.40;42.90;;;21.91;48.59;96244.22;4966182;28;20144;-47
2022/12/01 03:50:03;;;;;;;6.38;4.22;;;23.40;42.90;;;21.90;48.20;96246.09;4981920;28;20033;-49
2022/12/01 03:52:41;;;;;;;5.50;4.40;;;23.40;42.90;;;21.93;49.12;96239.41;4964770;28;20033;-48
2022/12/01 03:55:27;;;;;;;5.68;4.50;;;23.40;42.90;;;21.94;47.93;96255.22;4982913;28;20099;-47
2022/12/01 03:58:06;;;;;;;6.32;4.60;;;23.40;42.90;;;21.94;48.33;96247.19;4932994;28;20099;-47
2022/12/01 04:00:32;;;;;;;6.10;4.53;;;23.40;42.90;;;21.93;48.57;96258.97;4982814;28;20056;-47
2022/12/01 04:03:03;;;;;;;5.45;4.38;;;23.40;42.90;;;21.94;48.18;96257.91;4964569;28;20386;-47
2022/12/01 04:05:31;;;;;;;5.03;4.40;;;23.40;42.90;;;21.92;48.73;96256.56;4965596;28;20560;-46
2022/12/01 04:07:57;;;;;;;6.57;4.57;;;23.40;43.00;;;21.93;48.37;96253.63;4964216;28;20111;-47
2022/12/01 04:10:23;;;;;;;6.90;4.28;;;23.40;43.00;;;21.93;48.89;96256.28;4964604;28;20033;-47
2022/12/01 04:12:49;;;;;;;5.55;4.43;;;23.40;42.90;;;21.93;48.40;96258.97;4982464;28;20033;-46
2022/12/01 04:15:15;;;;;;;6.90;4.97;;;23.40;42.90;;;21.93;48.80;96256.28;4973186;28;20390;-51
2022/12/01 04:17:43;;;;;;;6.13;4.53;;;23.40;43.00;;;21.92;47.98;96252.00;4921638;28;20631;-50
2022/12/01 04:20:10;;;;;;;6.05;4.30;;;23.40;43.00;;;21.92;48.68;96252.00;4891767;28;20351;-49
2022/12/01 04:22:36;;;;;;;5.68;4.32;;;23.40;43.00;;;21.93;49.10;96255.50;4897737;28;20032;-50
2022/12/01 04:25:03;;;;;;;5.63;4.50;;;23.30;43.00;;;21.93;48.61;96247.44;4922686;28;20490;-51
2022/12/01 04:27:29;;;;;;;6.40;4.47;;;23.30;43.00;;;21.92;48.57;96249.31;4905677;28;20437;-50
2022/12/01 04:29:55;;;;;;;5.10;4.10;;;23.30;43.10;;;21.91;49.11;96242.34;4897057;28;20292;-48
2022/12/01 04:32:23;;;;;;;7.00;4.63;;;23.40;43.00;;;21.91;48.89;96250.38;4920418;28;20514;-48
2022/12/01 04:34:49;;;;;;;6.80;4.57;;;23.40;43.00;;;21.90;48.51;96248.78;4919486;28;20481;-49
2022/12/01 04:37:16;;;;;;;5.38;4.30;;;23.30;43.10;;;21.90;48.89;96247.97;4918880;28;20654;-47
2022/12/01 04:39:42;;;;;;;6.05;4.22;;;23.40;43.00;;;21.89;48.51;96239.13;4903847;28;20490;-49
2022/12/01 04:42:08;;;;;;;5.38;4.45;;;23.30;43.00;;;21.89;48.63;96246.34;4996540;28;20512;-47
2022/12/01 04:44:34;;;;;;;6.28;4.70;;;23.30;43.00;;;21.88;48.54;96245.56;5004380;28;20559;-47
2022/12/01 04:47:00;;;;;;;5.25;4.57;;;23.40;43.00;;;21.87;48.41;96235.09;5005186;28;20041;-51
2022/12/01 04:49:25;;;;;;;4.88;4.10;;;23.30;43.00;;;21.86;48.67;96236.97;5004192;28;20505;-48
2022/12/01 04:51:51;;;;;;;5.78;4.38;;;23.30;43.00;;;21.85;48.96;96248.75;5014206;28;20037;-50
2022/12/01 04:54:17;;;;;;;5.68;4.13;;;23.30;43.00;;;21.85;48.58;96245.25;4989809;28;20082;-46
2022/12/01 04:56:43;;;;;;;4.97;4.30;;;23.30;43.10;;;21.83;48.98;96240.16;5025028;28;20120;-46
2022/12/01 04:59:09;;;;;;;4.93;4.20;;;23.30;43.10;;;21.83;48.81;96245.53;4993795;28;20425;-46
2022/12/01 05:01:34;;;;;;;7.18;4.30;;;23.30;43.10;;;21.81;48.40;96244.97;5012182;28;20519;-46
2022/12/01 05:04:00;;;;;;;5.20;4.20;;;23.30;43.10;;;21.81;48.53;96250.31;5011970;28;20776;-48
2022/12/01 05:06:27;;;;;;;4.82;3.80;;;23.30;43.10;;;21.82;48.58;96246.59;4995911;28;20037;-47
2022/12/01 05:08:58;;;;;;;7.43;4.55;;;23.30;43.10;;;21.83;50.23;96252.75;4957938;28;20490;-55
2022/12/01 05:11:25;;;;;;;14.80;4.80;;;23.30;44.20;;;21.82;50.23;96257.28;4914324;28;20492;-53
2022/12/01 05:13:51;;;;;;;5.50;4.30;;;23.30;44.40;;;21.83;50.57;96258.09;4851306;28;20337;-50
2022/12/01 05:16:28;;;;;;;7.07;4.88;;;23.30;44.80;;;21.84;51.11;96260.53;4849836;28;20364;-52
2022/12/01 05:21:46;;;;;;;6.90;4.57;;;23.30;44.30;;;21.88;50.08;96258.13;4872969;28;20356;-48
2022/12/01 05:24:12;;;;;;;5.20;4.25;;;23.30;44.30;;;21.89;50.49;96257.88;4897369;28;20556;-50
2022/12/01 05:26:39;;;;;;;8.77;4.93;;;23.30;44.30;;;21.87;50.60;96264.56;4885377;28;20423;-50
2022/12/01 05:29:05;;;;;;;7.05;4.57;;;23.30;44.20;;;21.87;50.37;96267.22;4891928;28;20388;-54
2022/12/01 05:31:31;;;;;;;9.25;4.55;;;23.30;44.10;;;21.86;50.52;96266.44;4872267;28;20300;-48
2022/12/01 05:33:57;;;;;;;6.13;4.25;;;23.30;44.10;;;21.86;50.18;96262.94;4887330;28;20450;-49
2022/12/01 05:36:23;;;;;;;6.85;3.90;;;23.30;44.10;;;21.85;49.85;96262.13;4854829;28;20372;-50
2022/12/01 05:38:49;;;;;;;5.63;4.50;;;23.30;44.00;;;21.85;50.14;96266.69;4884557;28;20316;-49
2022/12/01 05:41:16;;;;;;;5.25;4.47;;;23.30;44.00;;;21.84;50.24;96251.69;4860436;28;20042;-47
2022/12/01 05:43:42;;;;;;;5.65;4.40;;;23.20;44.00;;;21.83;50.75;96252.75;4871027;28;20303;-55
2022/12/01 05:46:08;;;;;;;6.55;4.20;;;23.30;44.00;;;21.82;49.86;96257.28;4871897;28;20316;-50
2022/12/01 05:48:33;;;;;;;5.45;4.03;;;23.30;43.90;;;21.81;49.68;96266.41;4870710;28;20217;-48
2022/12/01 05:51:05;;;;;;;6.00;4.18;;;23.20;44.00;;;21.81;49.93;96253.00;4867553;28;20331;-47
2022/12/01 05:53:31;;;;;;;5.45;4.30;;;23.30;44.00;;;21.81;49.67;96262.91;4874437;28;20369;-53
2022/12/01 05:55:58;;;;;;;6.63;4.60;;;23.20;43.90;;;21.81;49.89;96255.69;4880497;28;20357;-52
2022/12/01 05:58:24;;;;;;;7.90;4.30;;;23.20;44.00;;;21.79;50.34;96263.16;4892250;28;20296;-51
2022/12/01 06:00:50;;;;;;;5.18;4.13;;;23.20;43.90;;;21.80;50.36;96262.09;4893393;28;20323;-55
2022/12/01 06:03:15;;;;;;;6.05;4.15;;;23.20;43.90;;;21.80;49.72;96263.97;4927141;28;20324;-47
2022/12/01 06:05:41;;;;;;;9.48;4.22;;;23.30;44.00;;;21.79;50.53;96263.16;4983972;28;20541;-49
2022/12/01 06:08:07;;;;;;;7.03;4.55;;;23.30;44.70;;;21.80;50.43;96270.13;4984298;28;20292;-46
2022/12/01 06:10:33;;;;;;;6.80;4.25;;;23.30;44.40;;;21.78;50.74;96269.59;4985007;28;20486;-50
2022/12/01 06:12:59;;;;;;;9.68;4.68;;;23.30;44.30;;;21.81;49.98;96266.41;4985237;28;20051;-48
2022/12/01 06:15:25;;;;;;;9.15;4.82;;;23.30;44.40;;;21.83;50.54;96274.97;4985144;28;20310;-47
2022/12/01 06:17:51;;;;;;;8.98;4.47;;;23.30;44.50;;;21.82;50.65;96273.38;4966104;28;20636;-47
2022/12/01 06:20:17;;;;;;;12.43;4.53;;;23.30;44.60;;;21.84;50.89;96271.22;4933662;28;20351;-50
2022/12/01 06:22:43;;;;;;;12.70;5.25;;;23.30;44.70;;;21.84;51.39;96271.22;4897831;28;20373;-54
2022/12/01 06:25:09;;;;;;;9.40;4.95;;;23.30;44.70;;;21.85;51.44;96275.53;4909842;28;20552;-52
2022/12/01 06:27:35;;;;;;;11.18;4.47;;;23.30;44.90;;;21.86;52.00;96277.13;4893888;28;20685;-52
2022/12/01 06:30:02;;;;;;;12.10;5.07;;;23.30;45.50;;;21.86;51.80;96274.47;4904851;28;20288;-48
2022/12/01 06:32:28;;;;;;;14.38;9.93;;;23.30;45.50;;;21.68;48.01;96261.44;4927403;28;20421;-58
2022/12/01 06:34:54;;;;;;;11.10;7.72;;;23.00;39.50;;;21.62;48.08;96268.66;4878582;28;20505;-58
2022/12/01 06:37:20;;;;;;;9.68;7.35;;;23.00;42.10;;;21.63;47.45;96266.78;4898393;28;20391;-55
2022/12/01 06:39:46;;;;;;;11.32;6.65;;;23.10;41.90;;;21.66;48.01;96274.28;4903019;28;20236;-55
2022/12/01 06:42:12;;;;;;;7.90;6.20;;;23.20;42.50;;;21.68;48.43;96281.00;4917828;28;20771;-52
2022/12/01 06:44:38;;;;;;;13.15;5.95;;;23.20;42.90;;;21.71;48.84;96282.34;4901412;28;20378;-56
2022/12/01 06:47:04;;;;;;;11.27;5.65;;;23.20;43.10;;;21.76;48.77;96278.94;4929207;28;20334;-56
2022/12/01 06:49:30;;;;;;;9.85;5.63;;;23.30;43.30;;;21.77;49.06;96286.72;4895583;28;20375;-55
2022/12/01 06:51:56;;;;;;;8.05;5.10;;;23.30;43.30;;;21.79;49.13;96279.22;4889590;28;20326;-55
2022/12/01 06:54:25;;;;;;;8.60;5.35;;;23.30;43.40;;;21.80;49.29;96286.19;4924447;28;20439;-57
2022/12/01 06:56:51;;;;;;;10.57;5.22;;;23.30;43.40;;;21.81;49.04;96287.00;4948492;28;20348;-56
2022/12/01 06:59:18;;;;;;;11.35;5.80;;;23.40;43.40;;;21.83;49.20;96290.25;4912375;28;20414;-54
2022/12/01 07:01:44;;;;;;;8.05;5.32;;;23.40;43.50;;;21.83;49.62;96291.03;4902828;28;20531;-56
2022/12/01 07:04:10;;;;;;;9.75;5.35;;;23.40;43.50;;;21.84;49.61;96291.84;4871169;28;20420;-58
2022/12/01 07:06:36;;;;;;;8.75;5.25;;;23.40;43.50;;;21.84;50.02;96281.94;4854588;28;20289;-55
2022/12/01 07:09:02;;;;;;;6.18;4.65;;;23.40;43.50;;;21.84;49.98;96295.34;4906691;28;20412;-55
2022/12/01 07:11:31;;;;;;;7.63;5.15;;;23.40;43.50;;;21.84;49.90;96289.97;4886199;28;20403;-56
2022/12/01 07:13:57;;;;;;;7.40;4.70;;;23.40;43.50;;;21.85;49.60;96288.91;4890322;28;20366;-57
2022/12/01 07:16:23;;;;;;;6.82;5.13;;;23.40;43.50;;;21.85;49.65;96294.28;4869392;28;20458;-55
2022/12/01 07:18:49;;;;;;;7.72;4.93;;;23.40;43.60;;;21.85;49.73;96283.56;4923146;28;20355;-55
2022/12/01 07:21:15;;;;;;;6.80;5.03;;;23.40;43.60;;;21.86;50.02;96301.25;4890975;28;20910;-58
2022/12/01 07:23:42;;;;;;;6.78;5.00;;;23.50;43.60;;;21.86;49.54;96295.09;4925034;28;20340;-56
2022/12/01 07:26:17;;;;;;;5.82;4.82;;;23.50;43.50;;;21.87;49.99;96296.69;4905678;28;20537;-55
2022/12/01 07:28:43;;;;;;;6.70;4.63;;;23.50;43.60;;;21.85;49.94;96294.28;4907091;28;20493;-56
2022/12/01 07:31:17;;;;;;;7.57;5.20;;;23.50;43.60;;;21.87;49.50;96299.38;4908957;28;20279;-55
2022/12/01 07:33:46;;;;;;;8.32;4.95;;;23.40;43.60;;;21.89;50.08;96303.41;4870774;28;20347;-54
2022/12/01 07:36:12;;;;;;;9.18;5.30;;;23.40;43.60;;;21.88;49.84;96301.78;4902069;28;20321;-53
2022/12/01 07:38:38;;;;;;;7.75;5.00;;;23.50;43.60;;;21.88;50.16;96304.47;4890757;28;20366;-55
2022/12/01 07:41:15;;;;;;;5.72;4.38;;;23.40;43.60;;;21.91;49.96;96306.63;4909791;28;20476;-54
2022/12/01 07:43:42;;;;;;;9.95;5.13;;;23.50;43.70;;;21.91;50.06;96309.31;4892357;28;20257;-56
2022/12/01 07:46:13;;;;;;;8.13;4.68;;;23.50;43.60;;;21.91;49.76;96312.00;4894161;28;20566;-52
2022/12/01 07:48:39;;;;;;;6.43;4.50;;;23.50;43.80;;;21.91;49.88;96303.97;4904819;28;20488;-55
2022/12/01 07:51:06;;;;;;;12.18;10.32;;;23.40;43.80;;;21.82;45.66;96284.06;4902269;28;20400;-55
2022/12/01 07:53:32;;;;;;;14.65;11.05;;;23.10;40.40;;;21.66;43.80;96282.31;4888329;28;20285;-64
2022/12/01 07:55:58;;;;;;;12.00;8.30;;;22.90;39.60;;;21.58;45.18;96288.94;4860435;28;20367;-55
2022/12/01 07:58:25;;;;;;;10.23;7.47;;;23.00;40.30;;;21.61;45.74;96298.34;4888886;28;20673;-56
2022/12/01 08:00:51;;;;;;;9.20;6.90;;;23.10;40.10;;;21.63;46.07;96306.94;4890238;28;20687;-54
2022/12/01 08:03:17;;;;;;;11.07;5.82;;;23.10;41.40;;;21.65;46.29;96299.44;4903062;28;20355;-56
2022/12/01 08:05:43;;;;;;;9.20;6.68;;;23.10;41.80;;;21.67;46.55;96302.69;4874122;28;20363;-52
2022/12/01 08:08:09;;;;;;;9.88;6.43;;;23.20;41.80;;;21.67;46.66;96306.16;4923306;28;20215;-55
2022/12/01 08:10:35;;;;;;;9.98;5.60;;;23.10;42.10;;;21.70;47.14;96307.53;4924564;28;20324;-55
2022/12/01 08:13:01;;;;;;;9.93;5.97;;;23.20;42.30;;;21.72;47.38;96305.41;4891575;28;20575;-53
2022/12/01 08:15:27;;;;;;;11.35;6.28;;;23.20;42.30;;;21.75;47.48;96310.25;4907590;28;20319;-53
2022/12/01 08:17:53;;;;;;;8.90;5.40;;;23.20;42.40;;;21.77;47.59;96316.16;4897466;28;20382;-54
2022/12/01 08:20:20;;;;;;;7.40;5.53;;;23.30;42.40;;;21.77;47.32;96313.50;4907084;28;20437;-52
2022/12/01 08:22:46;;;;;;;8.98;5.10;;;23.30;42.40;;;21.79;47.22;96322.09;4899495;28;20774;-54
2022/12/01 08:25:12;;;;;;;6.78;5.32;;;23.30;42.50;;;21.80;47.55;96312.97;4888337;28;20462;-55
2022/12/01 08:27:38;;;;;;;7.22;5.40;;;23.30;42.50;;;21.82;47.22;96313.53;4913208;28;20370;-56
2022/12/01 08:30:05;;;;;;;8.27;5.30;;;23.30;42.50;;;21.83;47.03;96319.69;4889851;28;20291;-55
2022/12/01 08:32:31;;;;;;;8.23;5.50;;;23.30;42.60;;;21.84;47.96;96318.63;4903136;28;20295;-58
2022/12/01 08:34:57;;;;;;;7.18;5.40;;;23.30;42.70;;;21.85;48.10;96314.88;4889184;28;20368;-59
2022/12/01 08:37:23;;;;;;;7.88;5.55;;;23.30;42.60;;;21.85;48.29;96312.22;4881731;28;20297;-57
2022/12/01 08:39:49;;;;;;;11.10;5.50;;;23.40;42.60;;;21.86;47.93;96306.59;4882545;28;20366;-57
2022/12/01 08:42:15;;;;;;;9.43;4.93;;;23.40;42.90;;;21.89;48.12;96311.44;4931733;28;20845;-54
2022/12/01 08:44:41;;;;;;;6.13;5.03;;;23.30;42.80;;;21.92;48.66;96310.94;4899576;28;20059;-51
2022/12/01 08:47:07;;;;;;;9.43;5.25;;;23.40;43.40;;;21.95;48.40;96318.47;4962009;28;20314;-49
2022/12/01 08:49:33;;;;;;;12.20;5.15;;;23.50;43.20;;;21.98;48.81;96320.63;4976315;28;20276;-52
2022/12/01 08:51:59;;;;;;;7.55;5.15;;;23.50;43.10;;;22.02;48.61;96316.38;4948141;28;20340;-51
2022/12/01 08:54:24;;;;;;;8.68;5.38;;;23.50;43.10;;;22.05;48.03;96317.78;4961410;28;20385;-51
2022/12/01 08:56:50;;;;;;;10.27;5.22;;;23.50;43.10;;;22.09;48.34;96318.88;4949884;28;20038;-49
2022/12/01 08:59:16;;;;;;;7.50;5.38;;;23.60;43.10;;;22.14;48.93;96318.91;4942029;28;20088;-49
2022/12/01 09:01:51;;;;;;;7.35;4.97;;;23.60;43.00;;;22.17;48.69;96312.22;4970056;28;20363;-51
2022/12/01 09:04:22;;;;;;;6.53;4.88;;;23.70;42.90;;;22.19;48.99;96310.13;4971856;28;20034;-54
2022/12/01 09:06:49;;;;;;;8.15;5.22;;;23.60;42.90;;;22.23;48.91;96306.66;4963484;28;20029;-53
2022/12/01 09:09:26;;;;;;;7.75;4.88;;;23.70;42.90;;;22.27;48.44;96323.84;4934904;28;20331;-54
2022/12/01 09:11:52;;;;;;;8.02;5.30;;;23.70;42.90;;;22.29;48.65;96323.56;4902883;28;20324;-54
2022/12/01 09:14:18;;;;;;;7.45;5.05;;;23.70;43.00;;;22.31;47.70;96319.56;4898977;28;20493;-53
2022/12/01 09:16:45;;;;;;;6.95;4.78;;;23.70;43.00;;;22.34;48.21;96320.94;4899702;28;20504;-55
2022/12/01 09:19:12;;;;;;;7.80;4.75;;;23.70;43.00;;;22.35;48.31;96322.53;4904388;28;20337;-51
2022/12/01 09:21:38;;;;;;;6.82;5.00;;;23.70;43.10;;;22.37;48.68;96317.72;4908630;28;20505;-54
2022/12/01 09:24:05;;;;;;;7.85;5.25;;;23.70;43.00;;;22.39;48.62;96328.19;4870511;28;20392;-57
2022/12/01 09:26:32;;;;;;;7.03;4.90;;;23.70;43.00;;;22.39;49.03;96326.31;4861865;28;20367;-55
2022/12/01 09:29:02;;;;;;;6.45;4.78;;;23.70;43.10;;;22.42;48.63;96333.06;4869717;28;20361;-48
2022/12/01 09:31:28;;;;;;;;;;;23.80;43.00;;;22.41;49.14;96328.75;4865016;28;20332;-49
2022/12/01 09:34:00;;;;;;;5.80;4.65;;;23.80;43.10;;;22.40;48.94;96325.25;4861877;28;20168;-46
2022/12/01 09:36:29;;;;;;;8.27;4.82;;;23.80;43.00;;;22.42;48.24;96325.00;4893681;28;20220;-47
2022/12/01 09:38:55;;;;;;;7.50;4.93;;;23.90;43.00;;;22.42;48.78;96319.66;4879932;28;20593;-47
2022/12/01 09:41:37;;;;;;;6.97;4.72;;;23.90;43.00;;;22.44;48.31;96322.88;4865146;28;20336;-48
2022/12/01 09:44:29;;;;;;;7.45;5.07;;;23.90;43.00;;;22.44;48.15;96323.69;4907822;28;20468;-49
2022/12/01 09:47:13;;;;;;;7.05;4.95;;;23.90;43.10;;;22.44;48.98;96323.69;4892012;28;20300;-47
2022/12/01 09:50:18;;;;;;;8.48;5.15;;;23.80;42.90;;;22.44;48.31;96318.31;4879069;28;20409;-48
2022/12/01 09:52:50;;;;;;;6.20;4.20;;;23.90;42.90;;;22.43;48.98;96311.34;4859241;28;20357;-48
2022/12/01 09:55:18;;;;;;;7.40;4.90;;;23.80;42.90;;;22.44;48.54;96306.78;4894477;28;20443;-46
2022/12/01 09:57:50;;;;;;;6.15;4.65;;;23.80;43.00;;;22.43;48.25;96306.00;4870337;28;20435;-46
2022/12/01 10:00:23;;;;;;;9.32;4.70;;;23.80;42.90;;;22.44;48.96;96302.25;4876031;28;20749;-45
2022/12/01 10:03:26;;;;;;;6.13;4.38;;;23.80;42.80;;;22.45;47.80;96295.81;4908878;28;20584;-47
2022/12/01 10:06:08;;;;;;;6.30;4.78;;;23.80;42.80;;;22.43;48.04;96302.50;4921973;28;20364;-47
2022/12/01 10:08:40;;;;;;;7.45;4.90;;;23.80;42.80;;;22.43;47.74;96294.47;4878383;28;20227;-45
2022/12/01 10:11:15;;;;;;;9.57;5.47;;;23.80;43.00;;;22.41;48.94;96296.59;4903317;28;20567;-48
2022/12/01 10:13:41;;;;;;;9.80;5.07;;;23.80;43.10;;;22.41;48.26;96292.03;4872336;28;20730;-46
2022/12/01 10:16:12;;;;;;;6.68;5.20;;;23.80;43.00;;;22.40;47.86;96285.03;4852855;28;20379;-45
2022/12/01 10:19:22;;;;;;;6.75;5.07;;;23.80;42.90;;;22.43;49.01;96284.53;4884620;28;20361;-49
2022/12/01 10:22:12;;;;;;;5.95;4.78;;;23.80;42.80;;;22.40;48.07;96279.69;4892280;28;20335;-48
2022/12/01 10:25:00;;;;;;;6.40;4.78;;;23.80;42.80;;;22.40;48.98;96279.69;4923701;28;20368;-44
2022/12/01 10:28:11;;;;;;;6.28;4.47;;;23.80;42.70;;;22.41;48.31;96275.97;4888268;28;20485;-47
2022/12/01 10:30:48;;;;;;;6.97;4.53;;;23.80;42.80;;;22.39;48.25;96278.06;4880918;28;20242;-46
2022/12/01 10:33:25;;;;;;;7.10;4.57;;;23.80;42.70;;;22.39;48.12;96272.72;4882619;28;20422;-44
2022/12/01 10:35:51;;;;;;;7.55;4.68;;;23.80;42.70;;;22.39;48.57;96275.38;4872544;28;20545;-46